sensor_id;sensor_type;location;lat;lon;timestamp;P1;durP1;ratioP1;P2;durP2;ratioP2
26223;SDS011;14820;48.682;8.890;2022-09-16T00:00:54;6.82;;;4.75;;
26223;SDS011;14820;48.682;8.890;2022-09-16T00:03:19;6.30;;;4.68;;
26223;SDS011;14820;48.682;8.890;2022-09-16T00:05:47;6.47;;;4.50;;
26223;SDS011;14820;48.682;8.890;2022-09-16T00:08:14;6.28;;;4.63;;
26223;SDS011;14820;48.682;8.890;2022-09-16T00:10:40;7.25;;;4.70;;
26223;SDS011;14820;48.682;8.890;2022-09-16T00:13:07;6.53;;;4.78;;
26223;SDS011;14820;48.682;8.890;2022-09-16T00:15:33;7.10;;;4.95;;
26223;SDS011;14820;48.682;8.890;2022-09-16T00:17:59;7.53;;;5.07;;
26223;SDS011;14820;48.682;8.890;2022-09-16T00:20:25;6.18;;;4.60;;
26223;SDS011;14820;48.682;8.890;2022-09-16T00:22:51;7.65;;;4.65;;
26223;SDS011;14820;48.682;8.890;2022-09-16T00:25:17;7.45;;;4.68;;
26223;SDS011;14820;48.682;8.890;2022-09-16T00:27:45;5.25;;;4.47;;
26223;SDS011;14820;48.682;8.890;2022-09-16T00:30:13;6.15;;;4.70;;
26223;SDS011;14820;48.682;8.890;2022-09-16T00:32:39;6.18;;;4.75;;
26223;SDS011;14820;48.682;8.890;2022-09-16T00:35:05;7.82;;;4.90;;
26223;SDS011;14820;48.682;8.890;2022-09-16T00:37:31;5.20;;;4.70;;
26223;SDS011;14820;48.682;8.890;2022-09-16T00:39:57;6.50;;;4.47;;
26223;SDS011;14820;48.682;8.890;2022-09-16T00:42:23;5.43;;;4.57;;
26223;SDS011;14820;48.682;8.890;2022-09-16T00:47:23;6.65;;;4.68;;
26223;SDS011;14820;48.682;8.890;2022-09-16T00:49:55;6.25;;;4.47;;
26223;SDS011;14820;48.682;8.890;2022-09-16T00:52:25;7.70;;;4.60;;
26223;SDS011;14820;48.682;8.890;2022-09-16T00:54:52;8.65;;;4.80;;
26223;SDS011;14820;48.682;8.890;2022-09-16T00:57:18;15.43;;;7.85;;
26223;SDS011;14820;48.682;8.890;2022-09-16T00:59:45;17.17;;;8.35;;
26223;SDS011;14820;48.682;8.890;2022-09-16T01:02:15;9.77;;;6.30;;
26223;SDS011;14820;48.682;8.890;2022-09-16T01:04:44;6.60;;;4.97;;
26223;SDS011;14820;48.682;8.890;2022-09-16T01:07:20;7.13;;;5.28;;
26223;SDS011;14820;48.682;8.890;2022-09-16T01:10:12;6.35;;;4.47;;
26223;SDS011;14820;48.682;8.890;2022-09-16T01:12:41;12.10;;;5.45;;
26223;SDS011;14820;48.682;8.890;2022-09-16T01:15:08;6.40;;;4.88;;
26223;SDS011;14820;48.682;8.890;2022-09-16T01:23:22;7.50;;;4.90;;
26223;SDS011;14820;48.682;8.890;2022-09-16T01:45:55;7.28;;;4.93;;
26223;SDS011;14820;48.682;8.890;2022-09-16T01:48:47;6.30;;;4.82;;
26223;SDS011;14820;48.682;8.890;2022-09-16T01:51:13;5.78;;;4.88;;
26223;SDS011;14820;48.682;8.890;2022-09-16T01:56:38;7.35;;;5.50;;
26223;SDS011;14820;48.682;8.890;2022-09-16T01:59:21;7.38;;;5.30;;
26223;SDS011;14820;48.682;8.890;2022-09-16T02:04:32;11.15;;;5.22;;
26223;SDS011;14820;48.682;8.890;2022-09-16T02:07:02;6.85;;;5.10;;
26223;SDS011;14820;48.682;8.890;2022-09-16T02:09:32;5.70;;;4.72;;
26223;SDS011;14820;48.682;8.890;2022-09-16T02:12:04;6.13;;;4.95;;
26223;SDS011;14820;48.682;8.890;2022-09-16T02:14:34;6.68;;;4.78;;
26223;SDS011;14820;48.682;8.890;2022-09-16T02:17:15;6.75;;;4.95;;
26223;SDS011;14820;48.682;8.890;2022-09-16T02:19:52;6.72;;;5.00;;
26223;SDS011;14820;48.682;8.890;2022-09-16T02:22:39;7.93;;;5.70;;
26223;SDS011;14820;48.682;8.890;2022-09-16T02:25:08;7.05;;;4.97;;
26223;SDS011;14820;48.682;8.890;2022-09-16T02:27:35;6.32;;;4.72;;
26223;SDS011;14820;48.682;8.890;2022-09-16T02:30:07;6.93;;;5.15;;
26223;SDS011;14820;48.682;8.890;2022-09-16T02:32:39;6.85;;;4.78;;
26223;SDS011;14820;48.682;8.890;2022-09-16T02:35:08;7.65;;;4.75;;
26223;SDS011;14820;48.682;8.890;2022-09-16T02:37:38;7.13;;;4.90;;
26223;SDS011;14820;48.682;8.890;2022-09-16T02:40:07;6.05;;;4.70;;
26223;SDS011;14820;48.682;8.890;2022-09-16T02:42:38;6.30;;;4.97;;
26223;SDS011;14820;48.682;8.890;2022-09-16T02:45:04;6.32;;;5.18;;
26223;SDS011;14820;48.682;8.890;2022-09-16T02:47:38;6.47;;;5.00;;
26223;SDS011;14820;48.682;8.890;2022-09-16T02:53:29;7.07;;;5.03;;
26223;SDS011;14820;48.682;8.890;2022-09-16T02:56:23;11.00;;;5.18;;
26223;SDS011;14820;48.682;8.890;2022-09-16T02:58:56;7.15;;;4.85;;
26223;SDS011;14820;48.682;8.890;2022-09-16T03:01:22;6.63;;;5.10;;
26223;SDS011;14820;48.682;8.890;2022-09-16T03:03:49;9.07;;;4.90;;
26223;SDS011;14820;48.682;8.890;2022-09-16T03:06:22;6.75;;;5.07;;
26223;SDS011;14820;48.682;8.890;2022-09-16T03:08:49;9.70;;;5.60;;
26223;SDS011;14820;48.682;8.890;2022-09-16T03:27:59;7.18;;;4.70;;
26223;SDS011;14820;48.682;8.890;2022-09-16T03:30:34;9.50;;;4.68;;
26223;SDS011;14820;48.682;8.890;2022-09-16T03:33:06;8.25;;;5.07;;
26223;SDS011;14820;48.682;8.890;2022-09-16T03:35:39;9.90;;;5.47;;
26223;SDS011;14820;48.682;8.890;2022-09-16T03:38:09;8.57;;;5.05;;
26223;SDS011;14820;48.682;8.890;2022-09-16T03:40:37;8.05;;;5.03;;
26223;SDS011;14820;48.682;8.890;2022-09-16T03:43:10;9.23;;;5.13;;
26223;SDS011;14820;48.682;8.890;2022-09-16T03:45:37;7.78;;;5.20;;
26223;SDS011;14820;48.682;8.890;2022-09-16T03:48:05;7.18;;;4.90;;
26223;SDS011;14820;48.682;8.890;2022-09-16T03:50:30;6.63;;;4.70;;
26223;SDS011;14820;48.682;8.890;2022-09-16T03:52:56;6.35;;;5.15;;
26223;SDS011;14820;48.682;8.890;2022-09-16T03:55:22;8.10;;;5.13;;
26223;SDS011;14820;48.682;8.890;2022-09-16T03:57:47;7.38;;;4.80;;
26223;SDS011;14820;48.682;8.890;2022-09-16T04:00:13;8.65;;;5.20;;
26223;SDS011;14820;48.682;8.890;2022-09-16T04:02:40;7.78;;;5.20;;
26223;SDS011;14820;48.682;8.890;2022-09-16T04:05:06;9.18;;;5.20;;
26223;SDS011;14820;48.682;8.890;2022-09-16T04:07:33;8.75;;;4.68;;
26223;SDS011;14820;48.682;8.890;2022-09-16T04:09:59;6.57;;;5.25;;
26223;SDS011;14820;48.682;8.890;2022-09-16T04:12:26;5.80;;;4.68;;
26223;SDS011;14820;48.682;8.890;2022-09-16T04:14:52;6.53;;;4.75;;
26223;SDS011;14820;48.682;8.890;2022-09-16T04:17:17;5.93;;;4.95;;
26223;SDS011;14820;48.682;8.890;2022-09-16T04:19:43;4.75;;;4.22;;
26223;SDS011;14820;48.682;8.890;2022-09-16T04:22:09;7.15;;;4.80;;
26223;SDS011;14820;48.682;8.890;2022-09-16T04:24:35;7.35;;;4.85;;
26223;SDS011;14820;48.682;8.890;2022-09-16T04:27:00;4.90;;;4.35;;
26223;SDS011;14820;48.682;8.890;2022-09-16T04:29:26;10.10;;;4.93;;
26223;SDS011;14820;48.682;8.890;2022-09-16T04:31:52;7.00;;;4.75;;
26223;SDS011;14820;48.682;8.890;2022-09-16T04:34:19;7.88;;;4.90;;
26223;SDS011;14820;48.682;8.890;2022-09-16T04:36:44;9.40;;;5.25;;
26223;SDS011;14820;48.682;8.890;2022-09-16T04:39:10;6.72;;;5.00;;
26223;SDS011;14820;48.682;8.890;2022-09-16T04:41:36;6.07;;;4.55;;
26223;SDS011;14820;48.682;8.890;2022-09-16T04:44:02;7.20;;;4.60;;
26223;SDS011;14820;48.682;8.890;2022-09-16T04:46:29;7.30;;;4.97;;
26223;SDS011;14820;48.682;8.890;2022-09-16T04:48:56;9.68;;;5.20;;
26223;SDS011;14820;48.682;8.890;2022-09-16T04:51:23;6.25;;;5.07;;
26223;SDS011;14820;48.682;8.890;2022-09-16T04:53:54;8.55;;;5.28;;
26223;SDS011;14820;48.682;8.890;2022-09-16T04:56:22;5.75;;;4.40;;
26223;SDS011;14820;48.682;8.890;2022-09-16T04:58:50;7.63;;;5.45;;
26223;SDS011;14820;48.682;8.890;2022-09-16T05:01:27;7.10;;;4.60;;
26223;SDS011;14820;48.682;8.890;2022-09-16T05:03:55;9.68;;;4.88;;
26223;SDS011;14820;48.682;8.890;2022-09-16T05:06:24;7.63;;;4.93;;
26223;SDS011;14820;48.682;8.890;2022-09-16T05:08:51;6.63;;;5.25;;
26223;SDS011;14820;48.682;8.890;2022-09-16T05:11:19;7.82;;;5.05;;
26223;SDS011;14820;48.682;8.890;2022-09-16T05:13:47;7.35;;;5.35;;
26223;SDS011;14820;48.682;8.890;2022-09-16T05:16:17;6.95;;;5.05;;
26223;SDS011;14820;48.682;8.890;2022-09-16T05:18:44;7.53;;;4.82;;
26223;SDS011;14820;48.682;8.890;2022-09-16T05:21:12;6.03;;;4.88;;
26223;SDS011;14820;48.682;8.890;2022-09-16T05:23:39;6.82;;;4.70;;
26223;SDS011;14820;48.682;8.890;2022-09-16T05:26:07;8.50;;;5.28;;
26223;SDS011;14820;48.682;8.890;2022-09-16T05:28:34;6.45;;;5.30;;
26223;SDS011;14820;48.682;8.890;2022-09-16T05:33:37;9.90;;;5.72;;
26223;SDS011;14820;48.682;8.890;2022-09-16T05:36:07;9.05;;;5.57;;
26223;SDS011;14820;48.682;8.890;2022-09-16T05:38:38;5.80;;;5.13;;
26223;SDS011;14820;48.682;8.890;2022-09-16T05:41:04;7.53;;;5.35;;
26223;SDS011;14820;48.682;8.890;2022-09-16T05:43:31;6.57;;;5.03;;
26223;SDS011;14820;48.682;8.890;2022-09-16T05:45:57;11.05;;;6.15;;
26223;SDS011;14820;48.682;8.890;2022-09-16T05:48:24;10.80;;;5.50;;
26223;SDS011;14820;48.682;8.890;2022-09-16T05:51:08;8.95;;;5.07;;
26223;SDS011;14820;48.682;8.890;2022-09-16T05:53:35;8.45;;;5.50;;
26223;SDS011;14820;48.682;8.890;2022-09-16T05:56:02;13.05;;;5.60;;
26223;SDS011;14820;48.682;8.890;2022-09-16T05:58:30;10.40;;;5.00;;
26223;SDS011;14820;48.682;8.890;2022-09-16T06:01:04;13.68;;;6.72;;
26223;SDS011;14820;48.682;8.890;2022-09-16T06:03:31;10.25;;;6.00;;
26223;SDS011;14820;48.682;8.890;2022-09-16T06:06:01;8.02;;;5.50;;
26223;SDS011;14820;48.682;8.890;2022-09-16T06:08:28;7.72;;;5.28;;
26223;SDS011;14820;48.682;8.890;2022-09-16T06:10:56;10.43;;;5.53;;
26223;SDS011;14820;48.682;8.890;2022-09-16T06:13:24;10.93;;;5.88;;
26223;SDS011;14820;48.682;8.890;2022-09-16T06:15:50;12.35;;;5.50;;
26223;SDS011;14820;48.682;8.890;2022-09-16T06:18:18;10.15;;;5.68;;
26223;SDS011;14820;48.682;8.890;2022-09-16T06:20:45;9.38;;;5.35;;
26223;SDS011;14820;48.682;8.890;2022-09-16T06:23:11;8.50;;;5.38;;
26223;SDS011;14820;48.682;8.890;2022-09-16T06:25:37;10.90;;;5.90;;
26223;SDS011;14820;48.682;8.890;2022-09-16T06:28:03;8.52;;;5.45;;
26223;SDS011;14820;48.682;8.890;2022-09-16T06:30:29;6.63;;;4.60;;
26223;SDS011;14820;48.682;8.890;2022-09-16T06:32:54;6.10;;;4.75;;
26223;SDS011;14820;48.682;8.890;2022-09-16T06:35:20;9.07;;;4.57;;
26223;SDS011;14820;48.682;8.890;2022-09-16T06:37:46;6.40;;;4.20;;
26223;SDS011;14820;48.682;8.890;2022-09-16T06:40:12;8.35;;;4.20;;
26223;SDS011;14820;48.682;8.890;2022-09-16T06:42:37;8.40;;;5.13;;
26223;SDS011;14820;48.682;8.890;2022-09-16T06:45:04;7.32;;;4.03;;
26223;SDS011;14820;48.682;8.890;2022-09-16T06:47:30;8.07;;;4.80;;
26223;SDS011;14820;48.682;8.890;2022-09-16T06:50:00;9.00;;;4.38;;
26223;SDS011;14820;48.682;8.890;2022-09-16T06:52:26;5.28;;;4.10;;
26223;SDS011;14820;48.682;8.890;2022-09-16T06:54:52;7.85;;;4.22;;
26223;SDS011;14820;48.682;8.890;2022-09-16T06:57:18;8.05;;;4.30;;
26223;SDS011;14820;48.682;8.890;2022-09-16T06:59:47;8.77;;;4.50;;
26223;SDS011;14820;48.682;8.890;2022-09-16T07:02:16;6.75;;;4.18;;
26223;SDS011;14820;48.682;8.890;2022-09-16T07:04:42;7.13;;;4.45;;
26223;SDS011;14820;48.682;8.890;2022-09-16T07:07:08;7.00;;;4.20;;
26223;SDS011;14820;48.682;8.890;2022-09-16T07:09:34;7.28;;;3.92;;
26223;SDS011;14820;48.682;8.890;2022-09-16T07:11:59;7.00;;;4.53;;
26223;SDS011;14820;48.682;8.890;2022-09-16T07:14:26;7.85;;;4.43;;
26223;SDS011;14820;48.682;8.890;2022-09-16T07:16:52;11.73;;;4.68;;
26223;SDS011;14820;48.682;8.890;2022-09-16T07:19:18;10.02;;;4.45;;
26223;SDS011;14820;48.682;8.890;2022-09-16T07:21:43;10.00;;;4.97;;
26223;SDS011;14820;48.682;8.890;2022-09-16T07:24:10;10.90;;;5.32;;
26223;SDS011;14820;48.682;8.890;2022-09-16T07:26:37;11.68;;;5.82;;
26223;SDS011;14820;48.682;8.890;2022-09-16T07:29:05;8.65;;;4.80;;
26223;SDS011;14820;48.682;8.890;2022-09-16T07:31:33;8.77;;;4.32;;
26223;SDS011;14820;48.682;8.890;2022-09-16T07:34:00;8.85;;;4.38;;
26223;SDS011;14820;48.682;8.890;2022-09-16T07:36:27;7.78;;;4.50;;
26223;SDS011;14820;48.682;8.890;2022-09-16T07:38:55;7.00;;;4.95;;
26223;SDS011;14820;48.682;8.890;2022-09-16T07:41:26;12.13;;;4.88;;
26223;SDS011;14820;48.682;8.890;2022-09-16T07:43:54;9.30;;;4.40;;
26223;SDS011;14820;48.682;8.890;2022-09-16T07:46:23;9.38;;;4.63;;
26223;SDS011;14820;48.682;8.890;2022-09-16T07:48:50;8.70;;;4.55;;
26223;SDS011;14820;48.682;8.890;2022-09-16T07:51:19;9.55;;;4.65;;
26223;SDS011;14820;48.682;8.890;2022-09-16T07:53:46;5.93;;;4.22;;
26223;SDS011;14820;48.682;8.890;2022-09-16T07:56:17;7.15;;;4.57;;
26223;SDS011;14820;48.682;8.890;2022-09-16T07:58:44;6.45;;;4.70;;
26223;SDS011;14820;48.682;8.890;2022-09-16T08:01:11;16.38;;;5.45;;
26223;SDS011;14820;48.682;8.890;2022-09-16T08:03:39;8.77;;;4.93;;
26223;SDS011;14820;48.682;8.890;2022-09-16T08:06:07;8.52;;;4.50;;
26223;SDS011;14820;48.682;8.890;2022-09-16T08:08:34;15.27;;;5.65;;
26223;SDS011;14820;48.682;8.890;2022-09-16T08:11:01;7.75;;;5.90;;
26223;SDS011;14820;48.682;8.890;2022-09-16T08:13:28;6.28;;;4.88;;
26223;SDS011;14820;48.682;8.890;2022-09-16T08:15:55;7.25;;;5.10;;
26223;SDS011;14820;48.682;8.890;2022-09-16T08:18:25;13.52;;;7.35;;
26223;SDS011;14820;48.682;8.890;2022-09-16T08:20:51;13.48;;;5.72;;
26223;SDS011;14820;48.682;8.890;2022-09-16T08:23:17;7.60;;;5.00;;
26223;SDS011;14820;48.682;8.890;2022-09-16T08:25:43;9.35;;;5.78;;
26223;SDS011;14820;48.682;8.890;2022-09-16T08:28:15;10.50;;;5.07;;
26223;SDS011;14820;48.682;8.890;2022-09-16T08:30:41;6.85;;;4.82;;
26223;SDS011;14820;48.682;8.890;2022-09-16T08:33:08;10.68;;;5.07;;
26223;SDS011;14820;48.682;8.890;2022-09-16T08:35:34;8.13;;;4.88;;
26223;SDS011;14820;48.682;8.890;2022-09-16T08:38:00;9.77;;;5.38;;
26223;SDS011;14820;48.682;8.890;2022-09-16T08:40:27;7.00;;;4.60;;
26223;SDS011;14820;48.682;8.890;2022-09-16T08:45:48;8.80;;;4.40;;
26223;SDS011;14820;48.682;8.890;2022-09-16T08:51:03;11.48;;;5.38;;
26223;SDS011;14820;48.682;8.890;2022-09-16T08:53:40;7.13;;;4.25;;
26223;SDS011;14820;48.682;8.890;2022-09-16T08:56:26;6.43;;;4.03;;
26223;SDS011;14820;48.682;8.890;2022-09-16T08:58:56;8.70;;;3.90;;
26223;SDS011;14820;48.682;8.890;2022-09-16T09:03:59;5.20;;;3.73;;
26223;SDS011;14820;48.682;8.890;2022-09-16T09:11:53;5.45;;;3.60;;
26223;SDS011;14820;48.682;8.890;2022-09-16T09:36:41;6.00;;;2.83;;
26223;SDS011;14820;48.682;8.890;2022-09-16T09:39:38;4.10;;;3.00;;
26223;SDS011;14820;48.682;8.890;2022-09-16T09:42:23;7.22;;;2.97;;
26223;SDS011;14820;48.682;8.890;2022-09-16T09:48:15;4.18;;;2.70;;
26223;SDS011;14820;48.682;8.890;2022-09-16T09:50:51;3.45;;;2.65;;
26223;SDS011;14820;48.682;8.890;2022-09-16T09:53:28;5.93;;;2.72;;
26223;SDS011;14820;48.682;8.890;2022-09-16T09:56:03;5.05;;;2.85;;
26223;SDS011;14820;48.682;8.890;2022-09-16T09:58:40;5.43;;;3.10;;
26223;SDS011;14820;48.682;8.890;2022-09-16T10:01:11;5.07;;;3.00;;
26223;SDS011;14820;48.682;8.890;2022-09-16T10:03:37;5.82;;;3.10;;
26223;SDS011;14820;48.682;8.890;2022-09-16T10:06:04;5.72;;;2.88;;
26223;SDS011;14820;48.682;8.890;2022-09-16T10:13:53;3.80;;;3.03;;
26223;SDS011;14820;48.682;8.890;2022-09-16T10:16:24;5.13;;;2.95;;
26223;SDS011;14820;48.682;8.890;2022-09-16T10:18:55;4.93;;;3.00;;
26223;SDS011;14820;48.682;8.890;2022-09-16T10:21:36;7.05;;;2.85;;
26223;SDS011;14820;48.682;8.890;2022-09-16T10:24:05;3.55;;;2.80;;
26223;SDS011;14820;48.682;8.890;2022-09-16T10:27:16;5.32;;;3.13;;
26223;SDS011;14820;48.682;8.890;2022-09-16T10:29:43;5.00;;;2.72;;
26223;SDS011;14820;48.682;8.890;2022-09-16T10:32:10;3.58;;;2.78;;
26223;SDS011;14820;48.682;8.890;2022-09-16T10:34:41;3.40;;;2.38;;
26223;SDS011;14820;48.682;8.890;2022-09-16T10:39:36;6.13;;;2.65;;
26223;SDS011;14820;48.682;8.890;2022-09-16T10:42:13;2.78;;;2.33;;
26223;SDS011;14820;48.682;8.890;2022-09-16T10:44:48;6.68;;;2.60;;
26223;SDS011;14820;48.682;8.890;2022-09-16T10:47:19;3.80;;;2.30;;
26223;SDS011;14820;48.682;8.890;2022-09-16T10:49:49;4.93;;;2.67;;
26223;SDS011;14820;48.682;8.890;2022-09-16T10:52:22;3.45;;;2.63;;
26223;SDS011;14820;48.682;8.890;2022-09-16T10:54:50;6.18;;;3.17;;
26223;SDS011;14820;48.682;8.890;2022-09-16T10:57:21;5.13;;;3.00;;
26223;SDS011;14820;48.682;8.890;2022-09-16T11:13:25;4.95;;;2.15;;
26223;SDS011;14820;48.682;8.890;2022-09-16T11:22:07;5.80;;;2.00;;
26223;SDS011;14820;48.682;8.890;2022-09-16T11:25:04;2.80;;;1.60;;
26223;SDS011;14820;48.682;8.890;2022-09-16T11:30:13;7.68;;;1.88;;
26223;SDS011;14820;48.682;8.890;2022-09-16T11:39:15;4.45;;;1.50;;
26223;SDS011;14820;48.682;8.890;2022-09-16T11:44:34;5.88;;;1.60;;
26223;SDS011;14820;48.682;8.890;2022-09-16T11:50:24;5.15;;;1.70;;
26223;SDS011;14820;48.682;8.890;2022-09-16T11:53:21;6.63;;;1.92;;
26223;SDS011;14820;48.682;8.890;2022-09-16T11:56:02;2.88;;;1.70;;
26223;SDS011;14820;48.682;8.890;2022-09-16T11:58:35;5.80;;;1.80;;
26223;SDS011;14820;48.682;8.890;2022-09-16T12:09:36;6.53;;;1.67;;
26223;SDS011;14820;48.682;8.890;2022-09-16T12:12:17;3.83;;;1.85;;
26223;SDS011;14820;48.682;8.890;2022-09-16T12:14:50;2.92;;;1.67;;
26223;SDS011;14820;48.682;8.890;2022-09-16T12:17:27;7.68;;;2.10;;
26223;SDS011;14820;48.682;8.890;2022-09-16T12:19:59;3.85;;;1.95;;
26223;SDS011;14820;48.682;8.890;2022-09-16T12:22:46;5.15;;;1.90;;
26223;SDS011;14820;48.682;8.890;2022-09-16T12:25:17;3.50;;;2.08;;
26223;SDS011;14820;48.682;8.890;2022-09-16T12:27:54;5.68;;;1.70;;
26223;SDS011;14820;48.682;8.890;2022-09-16T12:30:29;3.25;;;1.90;;
26223;SDS011;14820;48.682;8.890;2022-09-16T12:36:06;5.10;;;1.52;;
26223;SDS011;14820;48.682;8.890;2022-09-16T12:38:32;7.82;;;1.98;;
26223;SDS011;14820;48.682;8.890;2022-09-16T12:44:01;5.72;;;2.13;;
26223;SDS011;14820;48.682;8.890;2022-09-16T12:52:21;3.97;;;1.95;;
26223;SDS011;14820;48.682;8.890;2022-09-16T12:55:02;3.25;;;1.90;;
26223;SDS011;14820;48.682;8.890;2022-09-16T13:00:23;7.05;;;2.05;;
26223;SDS011;14820;48.682;8.890;2022-09-16T13:03:14;3.88;;;2.03;;
26223;SDS011;14820;48.682;8.890;2022-09-16T13:05:47;4.25;;;1.77;;
26223;SDS011;14820;48.682;8.890;2022-09-16T13:08:20;2.95;;;1.70;;
26223;SDS011;14820;48.682;8.890;2022-09-16T13:11:01;3.30;;;1.70;;
26223;SDS011;14820;48.682;8.890;2022-09-16T13:13:41;3.55;;;1.52;;
26223;SDS011;14820;48.682;8.890;2022-09-16T13:16:11;3.47;;;1.80;;
26223;SDS011;14820;48.682;8.890;2022-09-16T13:21:23;4.85;;;1.80;;
26223;SDS011;14820;48.682;8.890;2022-09-16T13:26:37;2.60;;;1.40;;
26223;SDS011;14820;48.682;8.890;2022-09-16T13:32:03;5.05;;;1.60;;
26223;SDS011;14820;48.682;8.890;2022-09-16T13:34:30;2.50;;;1.42;;
26223;SDS011;14820;48.682;8.890;2022-09-16T13:36:55;5.10;;;1.40;;
26223;SDS011;14820;48.682;8.890;2022-09-16T13:39:31;2.10;;;1.50;;
26223;SDS011;14820;48.682;8.890;2022-09-16T13:42:17;3.38;;;1.33;;
26223;SDS011;14820;48.682;8.890;2022-09-16T13:44:44;6.40;;;1.70;;
26223;SDS011;14820;48.682;8.890;2022-09-16T13:49:43;3.78;;;1.80;;
26223;SDS011;14820;48.682;8.890;2022-09-16T13:52:34;3.70;;;1.52;;
26223;SDS011;14820;48.682;8.890;2022-09-16T13:55:01;3.53;;;1.50;;
26223;SDS011;14820;48.682;8.890;2022-09-16T14:06:02;3.85;;;1.50;;
26223;SDS011;14820;48.682;8.890;2022-09-16T14:09:34;2.80;;;1.70;;
26223;SDS011;14820;48.682;8.890;2022-09-16T14:11:57;3.55;;;1.67;;
26223;SDS011;14820;48.682;8.890;2022-09-16T14:14:37;3.42;;;1.80;;
26223;SDS011;14820;48.682;8.890;2022-09-16T14:17:04;6.43;;;1.73;;
26223;SDS011;14820;48.682;8.890;2022-09-16T14:19:38;4.90;;;1.60;;
26223;SDS011;14820;48.682;8.890;2022-09-16T14:24:35;2.85;;;1.75;;
26223;SDS011;14820;48.682;8.890;2022-09-16T14:27:03;4.50;;;1.80;;
26223;SDS011;14820;48.682;8.890;2022-09-16T14:29:29;4.50;;;1.70;;
26223;SDS011;14820;48.682;8.890;2022-09-16T14:31:55;4.28;;;1.63;;
26223;SDS011;14820;48.682;8.890;2022-09-16T14:34:32;2.13;;;1.35;;
26223;SDS011;14820;48.682;8.890;2022-09-16T14:37:00;5.38;;;1.65;;
26223;SDS011;14820;48.682;8.890;2022-09-16T14:39:27;3.22;;;1.63;;
26223;SDS011;14820;48.682;8.890;2022-09-16T14:41:59;4.10;;;1.70;;
26223;SDS011;14820;48.682;8.890;2022-09-16T14:45:02;5.60;;;1.50;;
26223;SDS011;14820;48.682;8.890;2022-09-16T14:50:16;3.75;;;1.95;;
26223;SDS011;14820;48.682;8.890;2022-09-16T14:52:51;3.67;;;1.33;;
26223;SDS011;14820;48.682;8.890;2022-09-16T14:55:23;9.63;;;1.63;;
26223;SDS011;14820;48.682;8.890;2022-09-16T14:57:51;2.67;;;1.45;;
26223;SDS011;14820;48.682;8.890;2022-09-16T15:00:17;5.68;;;1.50;;
26223;SDS011;14820;48.682;8.890;2022-09-16T15:02:48;3.40;;;1.40;;
26223;SDS011;14820;48.682;8.890;2022-09-16T15:10:48;3.13;;;1.30;;
26223;SDS011;14820;48.682;8.890;2022-09-16T15:13:17;2.83;;;1.20;;
26223;SDS011;14820;48.682;8.890;2022-09-16T15:15:47;3.92;;;1.60;;
26223;SDS011;14820;48.682;8.890;2022-09-16T15:20:48;5.05;;;1.40;;
26223;SDS011;14820;48.682;8.890;2022-09-16T15:23:22;6.43;;;1.70;;
26223;SDS011;14820;48.682;8.890;2022-09-16T15:26:25;3.33;;;1.30;;
26223;SDS011;14820;48.682;8.890;2022-09-16T15:28:51;4.95;;;1.50;;
26223;SDS011;14820;48.682;8.890;2022-09-16T15:31:35;4.72;;;1.58;;
26223;SDS011;14820;48.682;8.890;2022-09-16T15:34:18;2.83;;;1.60;;
26223;SDS011;14820;48.682;8.890;2022-09-16T15:36:47;4.78;;;1.35;;
26223;SDS011;14820;48.682;8.890;2022-09-16T15:47:17;5.03;;;1.65;;
26223;SDS011;14820;48.682;8.890;2022-09-16T15:55:36;6.38;;;1.50;;
26223;SDS011;14820;48.682;8.890;2022-09-16T16:01:01;4.57;;;1.55;;
26223;SDS011;14820;48.682;8.890;2022-09-16T16:06:17;2.42;;;1.20;;
26223;SDS011;14820;48.682;8.890;2022-09-16T16:08:45;2.53;;;1.27;;
26223;SDS011;14820;48.682;8.890;2022-09-16T16:11:16;2.45;;;1.48;;
26223;SDS011;14820;48.682;8.890;2022-09-16T16:13:43;4.03;;;1.40;;
26223;SDS011;14820;48.682;8.890;2022-09-16T16:16:10;2.75;;;1.48;;
26223;SDS011;14820;48.682;8.890;2022-09-16T16:18:37;3.95;;;1.40;;
26223;SDS011;14820;48.682;8.890;2022-09-16T16:21:04;2.78;;;1.08;;
26223;SDS011;14820;48.682;8.890;2022-09-16T16:23:34;4.22;;;1.40;;
26223;SDS011;14820;48.682;8.890;2022-09-16T16:26:04;5.97;;;1.50;;
26223;SDS011;14820;48.682;8.890;2022-09-16T16:28:31;3.60;;;1.60;;
26223;SDS011;14820;48.682;8.890;2022-09-16T16:31:11;3.05;;;1.50;;
26223;SDS011;14820;48.682;8.890;2022-09-16T16:33:45;3.55;;;1.52;;
26223;SDS011;14820;48.682;8.890;2022-09-16T16:36:15;3.22;;;1.60;;
26223;SDS011;14820;48.682;8.890;2022-09-16T16:38:42;3.40;;;1.60;;
26223;SDS011;14820;48.682;8.890;2022-09-16T16:41:09;3.85;;;1.40;;
26223;SDS011;14820;48.682;8.890;2022-09-16T16:43:36;2.67;;;1.55;;
26223;SDS011;14820;48.682;8.890;2022-09-16T16:46:02;4.30;;;1.75;;
26223;SDS011;14820;48.682;8.890;2022-09-16T16:48:28;4.03;;;1.55;;
26223;SDS011;14820;48.682;8.890;2022-09-16T16:50:58;1.77;;;1.15;;
26223;SDS011;14820;48.682;8.890;2022-09-16T16:53:25;6.43;;;1.40;;
26223;SDS011;14820;48.682;8.890;2022-09-16T16:55:51;3.30;;;1.30;;
26223;SDS011;14820;48.682;8.890;2022-09-16T16:58:17;4.05;;;1.60;;
26223;SDS011;14820;48.682;8.890;2022-09-16T17:00:43;4.75;;;1.50;;
26223;SDS011;14820;48.682;8.890;2022-09-16T17:03:12;6.82;;;1.58;;
26223;SDS011;14820;48.682;8.890;2022-09-16T17:05:39;4.60;;;1.33;;
26223;SDS011;14820;48.682;8.890;2022-09-16T17:08:05;9.65;;;1.40;;
26223;SDS011;14820;48.682;8.890;2022-09-16T17:10:30;2.88;;;1.35;;
26223;SDS011;14820;48.682;8.890;2022-09-16T17:12:59;4.53;;;1.65;;
26223;SDS011;14820;48.682;8.890;2022-09-16T17:15:24;8.68;;;1.50;;
26223;SDS011;14820;48.682;8.890;2022-09-16T17:17:50;7.43;;;1.42;;
26223;SDS011;14820;48.682;8.890;2022-09-16T17:20:16;3.97;;;1.70;;
26223;SDS011;14820;48.682;8.890;2022-09-16T17:22:41;5.18;;;1.70;;
26223;SDS011;14820;48.682;8.890;2022-09-16T17:25:08;2.95;;;1.42;;
26223;SDS011;14820;48.682;8.890;2022-09-16T17:27:34;3.35;;;1.00;;
26223;SDS011;14820;48.682;8.890;2022-09-16T17:29:59;6.20;;;1.23;;
26223;SDS011;14820;48.682;8.890;2022-09-16T17:32:26;4.25;;;1.00;;
26223;SDS011;14820;48.682;8.890;2022-09-16T17:34:52;3.45;;;1.17;;
26223;SDS011;14820;48.682;8.890;2022-09-16T17:37:17;1.85;;;1.20;;
26223;SDS011;14820;48.682;8.890;2022-09-16T17:39:44;2.20;;;1.00;;
26223;SDS011;14820;48.682;8.890;2022-09-16T17:42:09;4.75;;;1.30;;
26223;SDS011;14820;48.682;8.890;2022-09-16T17:44:35;1.20;;;0.90;;
26223;SDS011;14820;48.682;8.890;2022-09-16T17:47:01;1.98;;;1.10;;
26223;SDS011;14820;48.682;8.890;2022-09-16T17:49:27;2.97;;;1.17;;
26223;SDS011;14820;48.682;8.890;2022-09-16T17:51:53;2.53;;;1.05;;
26223;SDS011;14820;48.682;8.890;2022-09-16T17:54:19;3.42;;;1.10;;
26223;SDS011;14820;48.682;8.890;2022-09-16T17:56:45;4.15;;;1.10;;
26223;SDS011;14820;48.682;8.890;2022-09-16T17:59:11;3.58;;;1.88;;
26223;SDS011;14820;48.682;8.890;2022-09-16T18:01:40;3.08;;;2.10;;
26223;SDS011;14820;48.682;8.890;2022-09-16T18:04:05;3.75;;;1.90;;
26223;SDS011;14820;48.682;8.890;2022-09-16T18:06:33;2.85;;;1.48;;
26223;SDS011;14820;48.682;8.890;2022-09-16T18:09:04;2.90;;;1.48;;
26223;SDS011;14820;48.682;8.890;2022-09-16T18:11:31;7.55;;;1.83;;
26223;SDS011;14820;48.682;8.890;2022-09-16T18:13:58;3.80;;;1.38;;
26223;SDS011;14820;48.682;8.890;2022-09-16T18:16:26;4.07;;;1.40;;
26223;SDS011;14820;48.682;8.890;2022-09-16T18:18:53;6.85;;;1.95;;
26223;SDS011;14820;48.682;8.890;2022-09-16T18:21:22;5.50;;;2.47;;
26223;SDS011;14820;48.682;8.890;2022-09-16T18:23:51;4.18;;;2.20;;
26223;SDS011;14820;48.682;8.890;2022-09-16T18:26:18;4.20;;;2.00;;
26223;SDS011;14820;48.682;8.890;2022-09-16T18:28:45;3.78;;;1.92;;
26223;SDS011;14820;48.682;8.890;2022-09-16T18:31:16;3.58;;;1.77;;
26223;SDS011;14820;48.682;8.890;2022-09-16T18:33:43;4.43;;;1.30;;
26223;SDS011;14820;48.682;8.890;2022-09-16T18:36:10;3.38;;;1.50;;